Time;durP1;ratioP1;P1;durP2;ratioP2;P2;SDS_P1;SDS_P2;PMS_P1;PMS_P2;Temp;Humidity;BMP_temperature;BMP_pressure;BME280_temperature;BME280_humidity;BME280_pressure;Samples;Min_cycle;Max_cycle;Signal;HPM_P1;HPM_P2
2022/12/15 00:41:05;;;;;;;24.20;21.60;;;-3.40;99.90;;;;;;5028660;28;20480;-74
2022/12/15 00:43:34;;;;;;;23.25;20.85;;;-3.40;99.90;;;;;;5018756;28;20431;-74
2022/12/15 00:48:47;;;;;;;24.10;21.52;;;-3.30;99.90;;;;;;5024737;28;20527;-74
2022/12/15 00:51:13;;;;;;;24.10;21.52;;;-3.40;99.70;;;;;;5028113;28;20434;-74
2022/12/15 01:21:09;;;;;;;27.25;24.55;;;-3.60;99.30;;;;;;5024812;28;20961;-73
2022/12/15 01:23:36;;;;;;;26.63;23.90;;;-3.50;99.30;;;;;;5023430;28;20423;-73
2022/12/15 01:26:04;;;;;;;25.97;23.47;;;-3.50;99.40;;;;;;5024610;28;20438;-72
2022/12/15 01:28:31;;;;;;;25.20;22.77;;;-3.60;99.50;;;;;;5021910;28;20438;-74
2022/12/15 01:30:58;;;;;;;27.27;24.58;;;-3.60;99.50;;;;;;5028231;28;20419;-73
2022/12/15 01:33:26;;;;;;;25.40;22.90;;;-3.70;99.50;;;;;;5026916;28;20438;-73
2022/12/15 01:35:57;;;;;;;26.08;23.48;;;-3.70;99.70;;;;;;5025543;28;20453;-75
2022/12/15 01:38:25;;;;;;;26.50;23.80;;;-3.70;99.80;;;;;;5026824;28;20434;-74
2022/12/15 01:40:53;;;;;;;26.65;24.05;;;-3.80;99.90;;;;;;5027177;28;20438;-73
2022/12/15 01:43:22;;;;;;;26.42;23.63;;;-3.80;99.90;;;;;;5026108;28;20826;-74
2022/12/15 01:45:54;;;;;;;26.70;24.00;;;-3.80;99.90;;;;;;5024317;28;20438;-74
2022/12/15 01:48:29;;;;;;;26.63;23.92;;;-3.80;99.90;;;;;;5026849;28;20438;-72
2022/12/15 01:51:04;;;;;;;25.70;23.05;;;-3.70;99.90;;;;;;5023634;28;20435;-71
2022/12/15 01:53:34;;;;;;;26.95;24.15;;;-3.70;99.90;;;;;;5021229;28;20414;-72
2022/12/15 01:56:03;;;;;;;26.60;23.90;;;-3.70;99.90;;;;;;5024215;28;21118;-72
2022/12/15 01:58:30;;;;;;;25.70;23.20;;;-3.80;99.90;;;;;;5026850;28;20423;-74
2022/12/15 02:00:58;;;;;;;25.30;22.90;;;-3.80;99.90;;;;;;5026608;28;20430;-74
2022/12/15 02:03:25;;;;;;;24.65;22.15;;;-3.90;99.90;;;;;;5027314;28;20430;-73
2022/12/15 02:05:55;;;;;;;25.57;22.70;;;-3.90;99.90;;;;;;5025497;28;20438;-71
2022/12/15 02:08:22;;;;;;;25.65;23.25;;;-3.90;99.90;;;;;;5023670;28;20449;-72
2022/12/15 02:11:05;;;;;;;24.77;22.27;;;-3.90;99.90;;;;;;5026334;28;20755;-74
2022/12/15 02:13:43;;;;;;;26.00;23.30;;;-4.00;99.80;;;;;;5035532;28;20438;-73
2022/12/15 02:16:18;;;;;;;26.35;23.65;;;-4.00;99.80;;;;;;5041290;28;20514;-73
2022/12/15 02:18:55;;;;;;;26.80;24.15;;;-4.00;99.80;;;;;;5042048;28;20419;-72
2022/12/15 02:21:29;;;;;;;26.90;24.00;;;-4.00;99.90;;;;;;5025617;28;20426;-72
2022/12/15 02:24:26;;;;;;;26.90;24.08;;;-4.00;99.90;;;;;;5025597;28;20468;-72
2022/12/15 02:27:41;;;;;;;26.90;24.20;;;-4.10;99.90;;;;;;5021034;28;20458;-74
2022/12/15 02:30:19;;;;;;;25.67;22.75;;;-4.10;99.80;;;;;;4962975;28;20441;-74
2022/12/15 02:32:53;;;;;;;25.52;22.92;;;-4.10;99.90;;;;;;5015386;28;20422;-72
2022/12/15 02:35:25;;;;;;;24.83;22.33;;;-4.10;99.90;;;;;;5018401;28;21018;-73
2022/12/15 02:37:52;;;;;;;26.30;23.50;;;-4.10;99.90;;;;;;5025509;28;20533;-74
2022/12/15 02:40:19;;;;;;;24.85;22.25;;;-4.10;99.90;;;;;;5026380;28;20481;-74
2022/12/15 02:42:51;;;;;;;25.25;22.60;;;-4.20;99.70;;;;;;5026147;28;20409;-73
2022/12/15 02:45:23;;;;;;;24.35;21.90;;;-4.20;99.60;;;;;;5029795;28;20430;-74
2022/12/15 02:47:59;;;;;;;24.60;22.00;;;-4.20;99.70;;;;;;5040319;28;20435;-72
2022/12/15 02:50:42;;;;;;;25.10;22.70;;;-4.20;99.50;;;;;;5036632;28;20439;-71
2022/12/15 02:53:20;;;;;;;24.45;22.05;;;-4.30;99.50;;;;;;5025716;28;20430;-72
2022/12/15 02:55:57;;;;;;;24.67;22.17;;;-4.30;99.50;;;;;;5025023;28;20431;-74
2022/12/15 02:58:29;;;;;;;24.42;21.95;;;-4.40;99.40;;;;;;5026103;28;20411;-74
2022/12/15 03:01:03;;;;;;;24.70;22.10;;;-4.40;99.30;;;;;;5026431;28;20419;-71
2022/12/15 03:03:32;;;;;;;23.58;21.17;;;-4.40;99.30;;;;;;5025590;28;20426;-74
2022/12/15 03:06:01;;;;;;;23.77;21.20;;;-4.50;99.20;;;;;;5023587;28;20453;-74
2022/12/15 03:08:28;;;;;;;23.65;21.25;;;-4.50;99.40;;;;;;5018688;28;20967;-73
2022/12/15 03:10:56;;;;;;;23.75;21.25;;;-4.50;99.40;;;;;;5026268;28;20414;-73
2022/12/15 03:13:23;;;;;;;22.95;20.65;;;-4.60;99.40;;;;;;5026122;28;20446;-74
2022/12/15 03:15:51;;;;;;;23.40;20.90;;;-4.60;99.80;;;;;;5024274;28;20954;-73
2022/12/15 03:18:19;;;;;;;24.60;21.92;;;-4.60;99.40;;;;;;5034124;28;20527;-73
2022/12/15 03:20:46;;;;;;;23.67;21.27;;;-4.60;99.40;;;;;;5024452;28;20854;-73
2022/12/15 03:23:12;;;;;;;24.10;21.50;;;-4.60;99.40;;;;;;5015717;28;20487;-74
2022/12/15 03:25:39;;;;;;;24.98;22.20;;;-4.70;99.40;;;;;;5022674;28;20427;-74
2022/12/15 03:28:06;;;;;;;24.73;22.10;;;-4.70;99.50;;;;;;5027059;28;20441;-73
2022/12/15 03:30:32;;;;;;;24.50;21.95;;;-4.70;99.50;;;;;;5025045;28;20453;-73
2022/12/15 03:32:59;;;;;;;23.75;21.25;;;-4.70;99.40;;;;;;5024644;28;20453;-73
2022/12/15 03:35:27;;;;;;;22.52;20.33;;;-4.70;99.40;;;;;;5022457;28;20949;-74
2022/12/15 03:37:54;;;;;;;23.17;20.85;;;-4.60;99.30;;;;;;5024425;28;20905;-74
2022/12/15 03:40:21;;;;;;;22.60;20.20;;;-4.70;99.20;;;;;;5024755;28;20423;-74
2022/12/15 03:42:47;;;;;;;22.77;20.38;;;-4.70;99.10;;;;;;5023810;28;20423;-74
2022/12/15 03:45:14;;;;;;;21.95;19.65;;;-4.70;98.90;;;;;;5022964;28;20817;-73
2022/12/15 03:47:41;;;;;;;23.60;21.17;;;-4.70;99.00;;;;;;5023494;28;20824;-74
2022/12/15 03:50:09;;;;;;;22.45;20.05;;;-4.80;99.00;;;;;;5017096;28;20814;-73
2022/12/15 03:52:38;;;;;;;22.60;20.00;;;-4.80;99.00;;;;;;5016630;28;20438;-72
2022/12/15 03:55:06;;;;;;;22.40;19.95;;;-4.80;99.00;;;;;;5023219;28;20500;-74
2022/12/15 03:57:33;;;;;;;23.13;20.83;;;-4.80;99.40;;;;;;5024563;28;20442;-73
2022/12/15 04:00:00;;;;;;;21.25;18.95;;;-4.90;99.10;;;;;;5023548;28;20415;-74
2022/12/15 04:02:27;;;;;;;21.75;19.45;;;-4.90;99.10;;;;;;5024241;28;20426;-74
2022/12/15 04:04:54;;;;;;;22.73;20.33;;;-4.90;99.10;;;;;;5023079;28;20443;-73
2022/12/15 04:07:20;;;;;;;23.85;21.35;;;-4.90;99.10;;;;;;5023408;28;20431;-73
2022/12/15 04:09:48;;;;;;;22.20;19.85;;;-4.90;99.00;;;;;;5024641;28;20449;-73
2022/12/15 04:12:15;;;;;;;21.95;19.20;;;-4.90;98.90;;;;;;5024925;28;20419;-73
2022/12/15 04:14:42;;;;;;;22.67;20.23;;;-5.00;98.80;;;;;;5025156;28;20958;-73
2022/12/15 04:17:09;;;;;;;22.88;20.48;;;-5.10;98.80;;;;;;5023917;28;20427;-73
2022/12/15 04:22:20;;;;;;;22.90;20.60;;;-5.10;99.00;;;;;;5013888;28;20433;-73
2022/12/15 05:33:31;;;;;;;23.42;19.55;;;-5.10;99.20;;;;;;5051141;28;20414;-74
2022/12/15 05:35:57;;;;;;;19.80;17.70;;;-5.00;99.00;;;;;;5060183;28;20436;-72
2022/12/15 05:38:24;;;;;;;20.40;18.30;;;-5.00;98.90;;;;;;5039774;28;20447;-73
2022/12/15 05:40:51;;;;;;;20.08;18.02;;;-5.00;98.70;;;;;;5026813;28;20450;-70
2022/12/15 05:43:18;;;;;;;21.38;19.15;;;-5.00;98.60;;;;;;5027451;28;20521;-72
2022/12/15 05:45:44;;;;;;;20.98;18.77;;;-5.10;98.70;;;;;;5029051;28;20450;-72
2022/12/15 05:48:13;;;;;;;22.15;19.45;;;-5.10;98.70;;;;;;5029573;28;20874;-74
2022/12/15 05:50:40;;;;;;;21.65;19.35;;;-5.10;98.80;;;;;;5033358;28;20532;-72
2022/12/15 05:53:07;;;;;;;21.70;19.40;;;-5.10;98.90;;;;;;5034197;28;20485;-72
2022/12/15 05:55:33;;;;;;;21.20;19.00;;;-5.00;98.90;;;;;;5033039;28;20526;-72
2022/12/15 05:58:00;;;;;;;21.23;18.92;;;-5.00;98.90;;;;;;5038356;28;20490;-72
2022/12/15 06:00:27;;;;;;;22.00;19.60;;;-5.00;99.00;;;;;;5032658;28;20446;-73
2022/12/15 06:02:53;;;;;;;20.13;18.00;;;-5.00;99.20;;;;;;5031073;28;20419;-73
2022/12/15 06:05:22;;;;;;;20.10;17.90;;;-5.00;99.30;;;;;;5034191;28;20814;-72
2022/12/15 06:07:48;;;;;;;21.23;18.92;;;-5.00;99.30;;;;;;5029940;28;20430;-72
2022/12/15 06:10:15;;;;;;;20.42;18.30;;;-5.00;99.30;;;;;;5030570;28;20439;-72
2022/12/15 06:12:42;;;;;;;20.52;18.42;;;-5.00;99.30;;;;;;5020757;28;20515;-72
2022/12/15 06:15:09;;;;;;;20.70;18.50;;;-5.00;99.20;;;;;;5026226;28;20434;-71
2022/12/15 06:17:36;;;;;;;20.75;18.38;;;-5.00;99.20;;;;;;5025811;28;20435;-71
2022/12/15 06:20:03;;;;;;;20.00;18.00;;;-5.00;99.20;;;;;;5024193;28;20431;-73
2022/12/15 06:22:31;;;;;;;20.42;17.67;;;-4.90;99.20;;;;;;5022760;28;20431;-72
2022/12/15 06:24:58;;;;;;;21.40;18.13;;;-4.90;99.00;;;;;;5020911;28;20435;-72
2022/12/15 06:27:24;;;;;;;21.73;18.58;;;-4.90;99.00;;;;;;5025944;28;20455;-72
2022/12/15 06:29:51;;;;;;;21.42;19.13;;;-5.00;98.90;;;;;;5024505;28;20486;-72
2022/12/15 06:32:20;;;;;;;21.25;18.48;;;-5.00;99.00;;;;;;5021680;28;20436;-72
2022/12/15 06:34:47;;;;;;;20.55;18.35;;;-5.00;99.20;;;;;;5019738;28;20753;-71
2022/12/15 06:37:14;;;;;;;21.52;18.13;;;-5.00;99.10;;;;;;5021971;28;20449;-71
2022/12/15 06:39:42;;;;;;;19.75;17.73;;;-4.90;99.00;;;;;;5020734;28;20440;-69
2022/12/15 06:42:09;;;;;;;20.27;18.08;;;-5.00;98.90;;;;;;5011986;28;20445;-69
2022/12/15 06:44:36;;;;;;;21.08;18.88;;;-5.00;98.90;;;;;;5018836;28;20431;-71
2022/12/15 06:47:03;;;;;;;20.83;18.35;;;-5.00;98.90;;;;;;5021423;28;20450;-71
2022/12/15 06:49:30;;;;;;;21.27;18.33;;;-4.90;99.00;;;;;;5023878;28;20439;-72
2022/12/15 06:51:57;;;;;;;20.83;17.58;;;-4.90;99.10;;;;;;5025265;28;20438;-71
2022/12/15 06:54:24;;;;;;;22.13;18.58;;;-4.80;99.10;;;;;;5025114;28;20440;-72
2022/12/15 06:56:52;;;;;;;21.13;18.88;;;-4.80;99.20;;;;;;5025513;28;20457;-71
2022/12/15 06:59:19;;;;;;;21.50;19.25;;;-4.70;99.30;;;;;;5035612;28;20435;-72
2022/12/15 07:01:46;;;;;;;23.80;19.98;;;-4.70;99.30;;;;;;5039980;28;20427;-74
2022/12/15 07:04:12;;;;;;;22.53;18.90;;;-4.60;99.30;;;;;;5037716;28;20832;-71
2022/12/15 07:06:41;;;;;;;22.75;19.80;;;-4.60;99.30;;;;;;5026498;28;20510;-71
2022/12/15 07:09:12;;;;;;;22.05;18.98;;;-4.50;99.50;;;;;;5023386;28;20438;-71
2022/12/15 07:11:39;;;;;;;21.55;19.25;;;-4.40;99.50;;;;;;5024478;28;21084;-71
2022/12/15 07:14:07;;;;;;;22.25;19.50;;;-4.40;99.50;;;;;;5024382;28;20892;-71
2022/12/15 07:16:34;;;;;;;22.88;20.50;;;-4.30;99.30;;;;;;5019765;28;20444;-71
2022/12/15 07:19:01;;;;;;;25.27;20.67;;;-4.40;99.20;;;;;;5023937;28;20605;-73
2022/12/15 07:21:28;;;;;;;25.27;20.63;;;-4.30;99.20;;;;;;5023849;28;20442;-71
2022/12/15 07:23:55;;;;;;;22.10;19.80;;;-4.40;99.10;;;;;;5021757;28;20955;-71
2022/12/15 07:26:22;;;;;;;22.73;19.52;;;-4.30;99.10;;;;;;5021827;28;20450;-71
2022/12/15 07:28:49;;;;;;;21.70;18.85;;;-4.30;98.90;;;;;;5027162;28;20438;-74
2022/12/15 07:31:17;;;;;;;21.70;19.02;;;-4.30;98.70;;;;;;5025069;28;20433;-74
2022/12/15 07:33:43;;;;;;;22.77;19.08;;;-4.30;98.50;;;;;;5022749;28;21012;-74
2022/12/15 07:36:10;;;;;;;22.70;19.23;;;-4.20;98.50;;;;;;5023875;28;20450;-75
2022/12/15 07:38:37;;;;;;;22.13;19.40;;;-4.20;98.50;;;;;;5022797;28;20431;-75
2022/12/15 07:41:06;;;;;;;20.85;18.65;;;-4.20;98.50;;;;;;5022314;28;20434;-73
2022/12/15 07:43:33;;;;;;;21.58;19.20;;;-4.10;98.50;;;;;;5018184;28;20428;-75
2022/12/15 07:46:00;;;;;;;22.63;19.58;;;-4.10;98.20;;;;;;5014697;28;20446;-76
2022/12/15 07:48:28;;;;;;;21.30;19.10;;;-4.00;97.90;;;;;;5023558;28;20439;-77
2022/12/15 07:50:57;;;;;;;20.95;18.67;;;-4.00;97.70;;;;;;5020476;28;20457;-71
2022/12/15 07:53:25;;;;;;;22.02;19.10;;;-4.10;97.60;;;;;;5018630;28;20439;-71
2022/12/15 07:55:57;;;;;;;20.70;18.50;;;-4.10;97.80;;;;;;5023884;28;20446;-72
2022/12/15 07:58:24;;;;;;;21.85;19.65;;;-4.10;97.80;;;;;;5017707;28;20442;-71
2022/12/15 08:00:51;;;;;;;23.20;20.47;;;-4.10;97.80;;;;;;5025870;28;20441;-71
2022/12/15 08:03:18;;;;;;;21.50;19.20;;;-4.10;97.90;;;;;;5019473;28;20498;-72
2022/12/15 08:05:46;;;;;;;22.07;19.67;;;-4.10;98.00;;;;;;5023820;28;20508;-71
2022/12/15 08:08:13;;;;;;;22.77;19.85;;;-4.10;98.70;;;;;;5019522;28;20458;-72
2022/12/15 08:10:40;;;;;;;23.67;20.77;;;-4.00;98.30;;;;;;5025880;28;20422;-72
2022/12/15 08:13:07;;;;;;;21.73;19.42;;;-3.90;97.90;;;;;;5022152;28;20928;-72
2022/12/15 08:15:36;;;;;;;22.30;19.90;;;-3.90;97.70;;;;;;5019129;28;20434;-72
2022/12/15 08:18:03;;;;;;;23.70;20.33;;;-3.90;97.50;;;;;;5020635;28;20584;-71
2022/12/15 08:20:30;;;;;;;23.50;20.48;;;-3.90;97.70;;;;;;5021335;28;20449;-70
2022/12/15 08:22:59;;;;;;;23.37;20.63;;;-3.80;97.80;;;;;;5022136;28;20579;-64
2022/12/15 08:25:28;;;;;;;24.20;21.20;;;-3.80;97.90;;;;;;5020624;28;20445;-71
2022/12/15 08:27:55;;;;;;;24.93;21.10;;;-3.80;98.00;;;;;;5017978;28;20762;-71
2022/12/15 08:30:22;;;;;;;25.25;21.63;;;-3.80;98.10;;;;;;5018209;28;20438;-68
2022/12/15 08:32:49;;;;;;;24.40;21.77;;;-3.80;98.30;;;;;;5021632;28;20434;-71
2022/12/15 08:35:15;;;;;;;25.90;23.10;;;-3.80;98.50;;;;;;5022893;28;20435;-73
2022/12/15 08:37:42;;;;;;;29.33;23.92;;;-3.70;98.70;;;;;;5019189;28;20491;-73
2022/12/15 08:40:12;;;;;;;25.10;22.50;;;-3.70;98.70;;;;;;5015724;28;20552;-72
2022/12/15 08:42:39;;;;;;;25.83;23.02;;;-3.60;98.60;;;;;;5022662;28;20443;-71
2022/12/15 08:45:07;;;;;;;28.85;24.20;;;-3.60;98.40;;;;;;5016511;28;20446;-71
2022/12/15 08:47:33;;;;;;;28.47;23.30;;;-3.50;98.40;;;;;;5019649;28;20430;-71
2022/12/15 08:50:00;;;;;;;27.83;24.33;;;-3.50;98.20;;;;;;5022851;28;20455;-71
2022/12/15 08:52:27;;;;;;;26.53;23.13;;;-3.50;98.10;;;;;;5020309;28;20510;-72
2022/12/15 08:54:54;;;;;;;26.20;23.13;;;-3.50;97.90;;;;;;5021580;28;20795;-73
2022/12/15 08:57:22;;;;;;;28.65;23.60;;;-3.50;97.90;;;;;;5026305;28;20502;-72
2022/12/15 08:59:49;;;;;;;27.85;24.67;;;-3.50;97.80;;;;;;5040624;28;20431;-71
2022/12/15 09:02:15;;;;;;;27.00;24.02;;;-3.50;97.60;;;;;;5034747;28;20467;-73
2022/12/15 09:04:43;;;;;;;28.40;25.30;;;-3.60;97.80;;;;;;5028552;28;20439;-71
2022/12/15 09:07:09;;;;;;;26.65;23.50;;;-3.50;97.80;;;;;;5028052;28;20514;-72
2022/12/15 09:09:36;;;;;;;27.92;24.92;;;-3.50;97.70;;;;;;5024636;28;20449;-71
2022/12/15 09:12:03;;;;;;;28.17;24.27;;;-3.50;97.90;;;;;;5041371;28;20425;-72
2022/12/15 09:14:31;;;;;;;29.73;24.40;;;-3.40;98.10;;;;;;5047558;28;20509;-70
2022/12/15 09:16:58;;;;;;;27.67;24.77;;;-3.40;97.90;;;;;;5043570;28;20438;-71
2022/12/15 09:19:25;;;;;;;28.88;24.75;;;-3.40;97.80;;;;;;5028826;28;20927;-71
2022/12/15 09:21:51;;;;;;;29.48;24.95;;;-3.40;97.90;;;;;;5026489;28;20517;-70
2022/12/15 09:24:18;;;;;;;29.20;25.50;;;-3.40;97.70;;;;;;5026547;28;20427;-70
2022/12/15 09:26:47;;;;;;;27.10;24.20;;;-3.50;97.70;;;;;;5024674;28;20438;-70
2022/12/15 09:29:14;;;;;;;26.92;23.85;;;-3.50;97.70;;;;;;5023269;28;20446;-70
2022/12/15 09:31:43;;;;;;;29.92;25.92;;;-3.40;97.60;;;;;;5025969;28;20916;-70
2022/12/15 09:34:14;;;;;;;29.30;25.10;;;-3.40;97.50;;;;;;5026621;28;20437;-70
2022/12/15 09:36:40;;;;;;;29.02;25.00;;;-3.50;97.70;;;;;;5031175;28;20493;-70
2022/12/15 09:39:07;;;;;;;28.50;25.13;;;-3.40;97.50;;;;;;5023932;28;20439;-70
2022/12/15 09:41:35;;;;;;;30.52;25.77;;;-3.40;97.50;;;;;;5023329;28;20952;-70
2022/12/15 09:44:04;;;;;;;29.30;26.10;;;-3.40;97.40;;;;;;5024015;28;20442;-70
2022/12/15 09:46:41;;;;;;;29.60;25.77;;;-3.40;97.40;;;;;;5019849;28;20447;-70
2022/12/15 09:49:21;;;;;;;31.88;27.20;;;-3.50;97.50;;;;;;5025161;28;20442;-71
2022/12/15 09:51:58;;;;;;;32.80;27.40;;;-3.50;98.10;;;;;;5023111;28;20433;-69
2022/12/15 09:54:31;;;;;;;30.30;26.08;;;-3.40;98.50;;;;;;5023413;28;20557;-69
2022/12/15 09:57:01;;;;;;;29.67;25.30;;;-3.30;98.10;;;;;;5027036;28;20462;-70
2022/12/15 09:59:33;;;;;;;29.17;25.45;;;-3.20;97.80;;;;;;5084128;22;20516;-68
2022/12/15 10:02:17;;;;;;;28.45;25.13;;;-3.10;97.50;;;;;;5085651;28;20421;-69
2022/12/15 10:04:54;;;;;;;28.10;24.55;;;-3.20;97.00;;;;;;5084211;28;20457;-70
2022/12/15 10:07:28;;;;;;;27.75;24.17;;;-3.20;96.90;;;;;;5082629;28;20533;-69
2022/12/15 10:09:55;;;;;;;27.38;24.38;;;-3.30;96.80;;;;;;5089105;28;20872;-68
2022/12/15 10:12:26;;;;;;;27.10;24.20;;;-3.30;96.80;;;;;;5086424;28;20425;-68
2022/12/15 10:15:00;;;;;;;26.83;24.03;;;-3.30;96.80;;;;;;5084756;28;20984;-68
2022/12/15 10:17:33;;;;;;;25.92;23.13;;;-3.30;96.80;;;;;;5091361;28;21054;-68
2022/12/15 10:20:06;;;;;;;27.07;24.17;;;-3.30;96.90;;;;;;5083662;28;20422;-67
2022/12/15 10:22:36;;;;;;;27.90;24.90;;;-3.30;97.00;;;;;;5083540;28;20425;-69
2022/12/15 10:25:14;;;;;;;28.95;25.88;;;-3.30;97.30;;;;;;5077155;28;20522;-69
2022/12/15 10:27:55;;;;;;;28.73;25.63;;;-3.20;97.50;;;;;;5082371;28;20426;-68
2022/12/15 10:30:22;;;;;;;27.63;24.73;;;-3.10;97.80;;;;;;5084369;28;20441;-68
2022/12/15 10:32:51;;;;;;;29.20;25.15;;;-3.10;98.00;;;;;;5079863;28;20438;-68
2022/12/15 10:35:22;;;;;;;27.80;24.65;;;-2.90;98.40;;;;;;5085033;28;20478;-68
2022/12/15 10:37:49;;;;;;;26.83;24.10;;;-2.80;98.20;;;;;;5081026;28;20428;-67
2022/12/15 10:40:19;;;;;;;29.30;26.10;;;-2.70;97.80;;;;;;5086369;28;20442;-68
2022/12/15 10:42:48;;;;;;;29.77;26.55;;;-2.70;97.60;;;;;;5084667;28;20426;-69
2022/12/15 10:45:34;;;;;;;33.60;29.27;;;-2.60;97.60;;;;;;5081797;28;20878;-68
2022/12/15 10:48:02;;;;;;;30.85;27.73;;;-2.50;97.40;;;;;;5080808;28;20433;-71
2022/12/15 10:50:30;;;;;;;28.58;25.63;;;-2.40;96.90;;;;;;5086424;28;20425;-67
2022/12/15 10:52:57;;;;;;;27.80;24.97;;;-2.40;96.50;;;;;;5086763;28;20580;-68
2022/12/15 10:55:36;;;;;;;28.15;25.15;;;-2.60;96.20;;;;;;5082075;28;20437;-67
2022/12/15 10:58:15;;;;;;;28.08;25.17;;;-2.60;96.10;;;;;;5080958;28;20430;-68
2022/12/15 11:00:42;;;;;;;28.65;25.65;;;-2.70;96.00;;;;;;5082854;28;20430;-68
2022/12/15 11:03:22;;;;;;;28.25;25.27;;;-2.80;95.80;;;;;;5085281;28;20432;-67
2022/12/15 11:05:53;;;;;;;29.02;25.92;;;-2.80;96.10;;;;;;5081804;28;20430;-68
2022/12/15 11:08:22;;;;;;;29.70;25.98;;;-2.80;96.30;;;;;;5082561;28;20445;-67
2022/12/15 11:13:35;;;;;;;29.13;25.65;;;-2.70;96.80;;;;;;5078190;28;20545;-68
2022/12/15 11:16:15;;;;;;;28.80;25.90;;;-2.60;96.40;;;;;;5084824;28;20437;-68
2022/12/15 11:18:47;;;;;;;28.90;25.80;;;-2.70;96.20;;;;;;5076787;28;20426;-69
2022/12/15 11:21:21;;;;;;;30.60;27.30;;;-2.70;96.50;;;;;;5079143;28;20586;-68
2022/12/15 11:23:56;;;;;;;28.67;24.85;;;-2.60;96.80;;;;;;5081498;28;21324;-69
2022/12/15 11:26:33;;;;;;;29.73;26.52;;;-2.60;96.60;;;;;;5079205;28;20438;-69
2022/12/15 11:29:06;;;;;;;27.80;24.90;;;-2.60;96.50;;;;;;5085997;28;21011;-68
2022/12/15 11:31:37;;;;;;;27.27;24.08;;;-2.50;96.40;;;;;;5085724;28;20430;-70
2022/12/15 11:34:11;;;;;;;28.33;25.35;;;-2.40;96.00;;;;;;5084052;28;20430;-69
2022/12/15 11:36:56;;;;;;;28.20;24.48;;;-2.40;95.60;;;;;;5082304;28;20441;-69
2022/12/15 11:39:36;;;;;;;28.20;25.20;;;-2.50;95.20;;;;;;5081288;28;20426;-70
2022/12/15 11:42:08;;;;;;;28.00;24.60;;;-2.50;95.50;;;;;;5087880;28;20418;-70
2022/12/15 11:44:46;;;;;;;25.58;22.90;;;-2.50;95.40;;;;;;5079263;28;20782;-71
2022/12/15 11:47:24;;;;;;;27.65;24.75;;;-2.50;95.10;;;;;;5082188;28;20440;-70
2022/12/15 11:50:17;;;;;;;30.05;25.85;;;-2.50;95.00;;;;;;5081627;28;20828;-69
2022/12/15 11:53:09;;;;;;;29.30;24.83;;;-2.60;95.20;;;;;;5083849;28;20436;-68
2022/12/15 11:55:47;;;;;;;27.85;24.85;;;-2.60;95.40;;;;;;5081813;28;21188;-69
2022/12/15 11:58:50;;;;;;;28.23;25.17;;;-2.50;95.70;;;;;;5073794;28;20426;-71
2022/12/15 12:01:36;;;;;;;28.50;25.47;;;-2.30;95.90;;;;;;5079050;28;20431;-69
2022/12/15 12:04:15;;;;;;;26.38;23.58;;;-1.70;96.80;;;;;;5081220;28;20461;-69
2022/12/15 12:06:48;;;;;;;26.40;23.70;;;-1.00;96.30;;;;;;5081805;28;20422;-69
2022/12/15 12:09:29;;;;;;;27.77;24.10;;;-0.30;93.50;;;;;;5080049;28;20841;-69
2022/12/15 12:12:03;;;;;;;26.42;23.73;;;-0.10;91.50;;;;;;5081077;28;20426;-69
2022/12/15 12:14:44;;;;;;;27.97;25.07;;;0.10;91.60;;;;;;5083301;28;20960;-69
2022/12/15 12:17:20;;;;;;;25.88;23.25;;;0.20;90.90;;;;;;5085181;28;20430;-71
2022/12/15 12:19:51;;;;;;;28.30;24.50;;;0.20;91.00;;;;;;5077968;28;20859;-69
2022/12/15 12:22:23;;;;;;;25.88;23.10;;;0.70;91.20;;;;;;5082914;28;20425;-70
2022/12/15 12:24:57;;;;;;;26.60;23.92;;;1.00;89.90;;;;;;5079568;28;20950;-70
2022/12/15 12:27:30;;;;;;;26.50;23.83;;;1.10;86.70;;;;;;5076131;28;20422;-70
2022/12/15 12:30:02;;;;;;;25.92;23.23;;;1.30;86.20;;;;;;5080766;28;20780;-70
2022/12/15 12:32:39;;;;;;;26.42;23.63;;;1.60;84.80;;;;;;5076093;28;20430;-69
2022/12/15 12:35:12;;;;;;;27.52;24.63;;;1.70;84.90;;;;;;5081223;28;20456;-69
2022/12/15 12:37:43;;;;;;;26.15;23.50;;;1.70;81.00;;;;;;5082975;28;20430;-70
2022/12/15 12:40:19;;;;;;;25.08;22.58;;;1.70;81.20;;;;;;5086445;28;20437;-70
2022/12/15 12:42:53;;;;;;;25.80;23.30;;;1.80;80.50;;;;;;5085090;28;20406;-70
2022/12/15 12:45:23;;;;;;;25.95;23.33;;;1.90;79.50;;;;;;5075272;28;20429;-69
2022/12/15 13:01:27;;;;;;;26.00;23.40;;;1.50;79.90;;;;;;5082468;28;20402;-70
2022/12/15 13:04:07;;;;;;;23.88;21.48;;;1.60;79.60;;;;;;5083948;28;20447;-69
2022/12/15 13:07:02;;;;;;;24.70;22.30;;;1.60;78.20;;;;;;5082341;28;20428;-69
2022/12/15 13:09:40;;;;;;;24.00;21.50;;;1.60;78.60;;;;;;5069328;28;20518;-69
2022/12/15 13:12:36;;;;;;;24.00;21.60;;;1.80;77.60;;;;;;5090042;28;20417;-69
2022/12/15 13:15:11;;;;;;;23.25;21.02;;;1.70;76.40;;;;;;5071642;28;20407;-70
2022/12/15 13:17:43;;;;;;;22.95;20.65;;;1.60;77.30;;;;;;5083950;28;20433;-68
2022/12/15 13:20:23;;;;;;;24.50;22.10;;;1.60;76.30;;;;;;5089347;28;20429;-70
2022/12/15 13:22:50;;;;;;;23.33;21.08;;;1.70;77.20;;;;;;5075791;28;20405;-70
2022/12/15 13:25:41;;;;;;;22.95;20.75;;;1.80;77.70;;;;;;5078230;28;20434;-72
2022/12/15 13:28:25;;;;;;;21.35;19.25;;;2.10;76.60;;;;;;5089076;28;20426;-69
2022/12/15 13:31:40;;;;;;;22.73;20.42;;;2.20;75.40;;;;;;5084375;28;21175;-70
2022/12/15 13:34:35;;;;;;;22.73;20.63;;;2.40;74.30;;;;;;5086674;28;20420;-69
2022/12/15 13:37:02;;;;;;;22.85;20.67;;;2.50;73.10;;;;;;5084522;28;20434;-69
2022/12/15 13:39:57;;;;;;;23.65;21.40;;;2.40;73.40;;;;;;5084225;28;20436;-69
2022/12/15 13:42:32;;;;;;;22.48;20.17;;;2.20;73.10;;;;;;5086866;28;20743;-70
2022/12/15 13:45:33;;;;;;;22.08;19.98;;;1.90;73.50;;;;;;5096122;28;20416;-70
2022/12/15 13:48:01;;;;;;;21.80;19.63;;;1.40;75.40;;;;;;5051179;28;20471;-72
2022/12/15 13:50:36;;;;;;;22.17;19.95;;;1.20;76.80;;;;;;5090591;28;20473;-70
2022/12/15 13:53:03;;;;;;;21.83;19.63;;;1.00;76.90;;;;;;5080046;28;20483;-69
2022/12/15 13:55:37;;;;;;;22.92;20.52;;;0.70;77.90;;;;;;5088812;28;20433;-69
2022/12/15 13:58:07;;;;;;;22.40;20.10;;;0.60;79.40;;;;;;5087942;28;20436;-68
2022/12/15 14:00:35;;;;;;;22.08;19.77;;;0.40;79.80;;;;;;5082987;28;20534;-68
2022/12/15 14:03:06;;;;;;;23.45;21.05;;;0.30;80.50;;;;;;5084884;28;20426;-68
2022/12/15 14:05:35;;;;;;;22.63;20.33;;;0.10;82.00;;;;;;5087560;28;20434;-68
2022/12/15 14:08:06;;;;;;;24.05;21.65;;;0.00;83.10;;;;;;5080903;28;20512;-71
2022/12/15 14:10:40;;;;;;;23.45;21.10;;;0.00;83.00;;;;;;5080970;28;20976;-69
2022/12/15 14:13:12;;;;;;;24.45;21.35;;;0.00;83.70;;;;;;5087696;28;20951;-69
2022/12/15 14:15:42;;;;;;;23.70;21.30;;;0.00;83.80;;;;;;5081951;28;21075;-69
2022/12/15 14:18:23;;;;;;;23.50;21.00;;;0.00;83.90;;;;;;5073827;28;20432;-70
2022/12/15 14:20:52;;;;;;;22.80;20.50;;;-0.10;83.50;;;;;;5080689;28;20492;-73
2022/12/15 14:23:20;;;;;;;23.73;21.25;;;-0.30;83.80;;;;;;5082907;28;20523;-70
2022/12/15 14:25:55;;;;;;;23.40;21.00;;;-0.40;83.90;;;;;;5087446;28;20493;-71
2022/12/15 14:28:28;;;;;;;23.30;20.92;;;-0.60;84.80;;;;;;5083181;28;20431;-71
2022/12/15 14:30:59;;;;;;;25.35;22.10;;;-0.60;85.90;;;;;;5087029;28;20986;-69
2022/12/15 14:33:26;;;;;;;24.55;21.95;;;-0.70;87.00;;;;;;5085163;28;20923;-70
2022/12/15 14:35:57;;;;;;;24.23;21.73;;;-0.70;87.20;;;;;;5089311;28;20437;-71
2022/12/15 14:38:28;;;;;;;23.67;21.17;;;-0.70;87.90;;;;;;5085979;28;20428;-70
2022/12/15 14:40:57;;;;;;;23.88;21.38;;;-0.70;88.20;;;;;;5083246;28;20460;-70
2022/12/15 14:43:27;;;;;;;24.27;21.77;;;-0.70;87.20;;;;;;5089209;28;20426;-69
2022/12/15 14:45:56;;;;;;;25.77;23.08;;;-0.70;86.70;;;;;;5095400;28;20414;-70
2022/12/15 14:48:29;;;;;;;23.50;21.02;;;-0.80;87.10;;;;;;5073746;28;20436;-69
2022/12/15 14:51:01;;;;;;;25.17;22.55;;;-0.90;87.70;;;;;;5091468;28;20485;-70
2022/12/15 14:53:32;;;;;;;25.45;21.95;;;-0.90;88.60;;;;;;5080058;28;20441;-70
2022/12/15 14:56:13;;;;;;;24.17;21.58;;;-1.00;88.50;;;;;;5079046;28;20430;-69
2022/12/15 14:58:41;;;;;;;24.27;20.60;;;-1.00;88.40;;;;;;5078605;28;20429;-69
2022/12/15 15:01:22;;;;;;;25.33;21.70;;;-1.20;89.00;;;;;;5088488;28;20421;-70
2022/12/15 15:03:57;;;;;;;23.08;20.65;;;-1.20;89.80;;;;;;5084330;28;20750;-70
2022/12/15 15:06:34;;;;;;;23.98;21.38;;;-1.30;89.60;;;;;;5079789;28;20430;-69
2022/12/15 15:09:16;;;;;;;22.50;20.10;;;-1.50;90.00;;;;;;5083346;28;20769;-69
2022/12/15 15:11:43;;;;;;;23.60;21.10;;;-1.60;90.40;;;;;;5089294;28;20439;-69
2022/12/15 15:14:14;;;;;;;23.35;20.85;;;-1.60;90.70;;;;;;5085788;28;20425;-68
2022/12/15 15:16:42;;;;;;;24.10;21.60;;;-1.70;90.90;;;;;;5075046;28;20425;-67
2022/12/15 15:19:20;;;;;;;23.73;21.10;;;-1.70;91.60;;;;;;5079525;28;20605;-67
2022/12/15 15:21:49;;;;;;;24.42;21.83;;;-1.80;91.50;;;;;;5089753;28;20438;-68
2022/12/15 15:24:24;;;;;;;24.33;21.73;;;-1.80;91.60;;;;;;5082009;28;20731;-68
2022/12/15 15:26:52;;;;;;;24.97;22.00;;;-1.70;91.60;;;;;;5085255;28;20519;-68